Time;durP1;ratioP1;P1;durP2;ratioP2;P2;SDS_P1;SDS_P2;PMS_P1;PMS_P2;Temp;Humidity;BMP_temperature;BMP_pressure;BME280_temperature;BME280_humidity;BME280_pressure;Samples;Min_cycle;Max_cycle;Signal;HPM_P1;HPM_P2
2021/12/01 00:00:50;;;;;;;3.45;1.08;;;-1.10;80.60;-1.50;95355.00;;;;4961296;28;87212;-62
2021/12/01 00:03:17;;;;;;;2.10;1.38;;;-1.10;80.40;-1.50;95359.00;;;;4961908;28;89642;-62
2021/12/01 00:05:43;;;;;;;2.88;1.67;;;-1.20;80.70;-1.40;95357.00;;;;4962204;28;88485;-62
2021/12/01 00:08:10;;;;;;;6.65;1.70;;;-1.10;81.10;-1.50;95336.00;;;;4962288;28;87514;-63
2021/12/01 00:10:38;;;;;;;2.55;1.80;;;-1.10;81.90;-1.40;95364.00;;;;4962449;28;87439;-62
2021/12/01 00:13:07;;;;;;;2.17;1.33;;;-1.10;82.20;-1.40;95376.00;;;;4961736;28;88861;-61
2021/12/01 00:15:34;;;;;;;2.72;1.35;;;-1.10;82.70;-1.40;95361.00;;;;4968785;28;87406;-61
2021/12/01 00:18:00;;;;;;;4.97;2.08;;;-1.10;82.70;-1.60;95365.00;;;;4962350;28;87063;-61
2021/12/01 00:20:27;;;;;;;3.30;1.50;;;-1.30;83.20;-1.70;95354.00;;;;4962617;28;86605;-61
2021/12/01 00:22:55;;;;;;;2.30;1.40;;;-1.30;84.60;-1.50;95356.00;;;;4978668;28;87783;-61
2021/12/01 00:25:23;;;;;;;2.83;1.08;;;-1.20;83.80;-1.40;95368.00;;;;4980471;28;89639;-61
2021/12/01 00:27:54;;;;;;;1.73;1.10;;;-1.10;83.00;-1.40;95375.00;;;;4980113;28;88029;-61
2021/12/01 00:30:22;;;;;;;2.22;1.20;;;-1.10;82.50;-1.50;95377.00;;;;4981644;28;87292;-60
2021/12/01 00:32:49;;;;;;;1.45;1.20;;;-1.10;82.60;-1.50;95366.00;;;;4981522;28;88626;-60
2021/12/01 00:35:15;;;;;;;2.03;1.20;;;-1.20;83.10;-1.60;95375.00;;;;4981572;28;87327;-61
2021/12/01 00:37:43;;;;;;;2.00;1.38;;;-1.30;83.10;-1.70;95379.00;;;;4981265;28;87058;-61
2021/12/01 00:40:11;;;;;;;2.47;1.33;;;-1.30;83.40;-1.70;95384.00;;;;4981513;28;87539;-61
2021/12/01 00:42:38;;;;;;;2.33;1.52;;;-1.40;83.20;-1.80;95392.00;;;;4981406;28;87715;-61
2021/12/01 00:45:19;;;;;;;2.45;1.48;;;-1.50;83.20;-1.80;95385.00;;;;4981617;28;87121;-61
2021/12/01 00:47:50;;;;;;;3.90;1.80;;;-1.50;83.80;-1.90;95375.00;;;;4981145;28;87178;-62
2021/12/01 00:50:25;;;;;;;1.70;1.30;;;-1.50;83.40;-2.00;95374.00;;;;4972934;28;87438;-61
2021/12/01 00:52:54;;;;;;;1.92;1.20;;;-1.60;84.30;-1.90;95375.00;;;;4960903;28;89055;-61
2021/12/01 00:55:21;;;;;;;2.05;1.50;;;-1.50;85.00;-1.90;95379.00;;;;4963024;28;89227;-61
2021/12/01 00:57:50;;;;;;;4.85;1.52;;;-1.50;85.00;-1.70;95375.00;;;;4980794;28;87297;-61
2021/12/01 01:00:21;;;;;;;2.17;1.27;;;-1.40;83.90;-1.70;95384.00;;;;4980828;28;87010;-61
2021/12/01 01:02:48;;;;;;;1.48;1.20;;;-1.50;84.20;-1.70;95380.00;;;;4981363;28;87621;-60
2021/12/01 01:05:15;;;;;;;2.40;1.48;;;-1.40;84.20;-1.90;95368.00;;;;4980238;28;88829;-61
2021/12/01 01:07:41;;;;;;;2.58;1.42;;;-1.50;83.80;-2.00;95380.00;;;;4980907;28;87464;-61
2021/12/01 01:10:29;;;;;;;3.58;1.40;;;-1.60;84.50;-2.00;95383.00;;;;4981214;28;86679;-62
2021/12/01 01:18:38;;;;;;;3.40;1.52;;;-1.70;85.10;-2.10;95395.00;;;;4995522;28;88487;-61
2021/12/01 01:21:05;;;;;;;3.40;1.70;;;-1.70;86.00;-2.00;95390.00;;;;4980808;28;86962;-61
2021/12/01 01:23:34;;;;;;;6.18;1.95;;;-1.70;86.40;-2.00;95392.00;;;;4974042;28;87622;-61
2021/12/01 01:26:03;;;;;;;2.40;1.50;;;-1.70;85.80;-1.90;95380.00;;;;4960848;28;87259;-60
2021/12/01 01:28:30;;;;;;;1.92;1.60;;;-1.60;85.70;-2.00;95383.00;;;;4961206;28;87037;-60
2021/12/01 01:30:57;;;;;;;2.88;1.58;;;-1.70;86.10;-2.00;95397.00;;;;4960891;28;87267;-60
2021/12/01 01:33:23;;;;;;;1.75;1.23;;;-1.70;86.50;-2.10;95388.00;;;;4960168;28;87332;-61
2021/12/01 01:35:50;;;;;;;3.75;1.80;;;-1.80;86.80;-2.00;95387.00;;;;4961426;28;88937;-60
2021/12/01 01:38:16;;;;;;;1.92;1.40;;;-1.70;86.70;-2.00;95387.00;;;;4960885;28;87244;-61
2021/12/01 01:40:43;;;;;;;2.58;1.80;;;-1.60;87.80;-1.90;95407.00;;;;4976509;28;87533;-61
2021/12/01 01:43:11;;;;;;;4.10;1.80;;;-1.60;86.60;-2.00;95402.00;;;;4959724;28;89573;-61
2021/12/01 01:45:38;;;;;;;18.15;1.88;;;-1.70;85.90;-2.10;95384.00;;;;4975940;28;89396;-61
2021/12/01 01:48:10;;;;;;;6.45;2.47;;;-1.80;86.10;-2.20;95406.00;;;;4960720;28;86895;-61
2021/12/01 01:50:40;;;;;;;3.25;1.55;;;-1.80;87.20;-2.10;95402.00;;;;4979231;28;87460;-60
2021/12/01 01:53:08;;;;;;;2.03;1.20;;;-1.70;86.60;-2.00;95400.00;;;;4979155;28;88706;-60
2021/12/01 01:55:39;;;;;;;2.08;1.42;;;-1.70;86.70;-2.10;95396.00;;;;4979997;28;88404;-60
2021/12/01 01:58:05;;;;;;;5.53;1.83;;;-1.70;86.50;-2.10;95412.00;;;;4979245;28;87612;-60
2021/12/01 02:00:37;;;;;;;1.75;1.35;;;-1.70;87.40;-2.00;95406.00;;;;4980711;28;86546;-61
2021/12/01 02:03:03;;;;;;;2.38;1.60;;;-1.60;86.50;-2.00;95404.00;;;;4978942;28;88668;-61
2021/12/01 02:05:29;;;;;;;3.28;1.80;;;-1.70;85.40;-2.10;95409.00;;;;4980291;28;87405;-60
2021/12/01 02:07:57;;;;;;;2.67;1.80;;;-1.70;85.60;-2.20;95413.00;;;;4979579;28;87918;-60
2021/12/01 02:10:23;;;;;;;3.45;1.60;;;-1.80;85.90;-2.20;95424.00;;;;4979556;28;87363;-60
2021/12/01 02:12:49;;;;;;;2.80;1.52;;;-1.90;85.70;-2.20;95432.00;;;;4980267;28;87959;-60
2021/12/01 02:15:16;;;;;;;2.72;1.55;;;-1.80;86.30;-2.20;95412.00;;;;4972423;28;87468;-60
2021/12/01 02:17:43;;;;;;;2.25;1.50;;;-1.90;85.20;-2.20;95416.00;;;;4979620;28;87393;-60
2021/12/01 02:20:27;;;;;;;2.38;1.40;;;-1.80;85.80;-2.30;95434.00;;;;4979685;28;87219;-60
2021/12/01 02:22:53;;;;;;;2.72;1.40;;;-1.90;86.10;-2.20;95436.00;;;;4977917;28;88687;-60
2021/12/01 02:25:24;;;;;;;2.75;1.75;;;-1.80;85.10;-2.20;95429.00;;;;4960412;28;88740;-60
2021/12/01 02:27:50;;;;;;;3.40;1.73;;;-1.80;86.00;-2.20;95435.00;;;;4975812;28;87529;-61
2021/12/01 02:30:16;;;;;;;1.98;1.05;;;-1.80;84.50;-2.20;95419.00;;;;4959847;28;87303;-61
2021/12/01 02:32:43;;;;;;;3.65;1.38;;;-1.80;84.80;-2.20;95439.00;;;;4959882;28;88644;-60
2021/12/01 02:35:09;;;;;;;3.70;1.58;;;-1.80;83.80;-2.20;95442.00;;;;4958684;28;88248;-60
2021/12/01 02:37:40;;;;;;;2.83;1.70;;;-1.90;83.80;-2.30;95428.00;;;;4957650;28;88314;-60
2021/12/01 02:40:07;;;;;;;2.05;1.52;;;-1.90;84.30;-2.30;95419.00;;;;4960024;28;87367;-60
2021/12/01 02:42:33;;;;;;;3.17;1.45;;;-1.90;84.20;-2.40;95424.00;;;;4959787;28;87659;-62
2021/12/01 02:45:00;;;;;;;3.83;1.77;;;-2.00;84.30;-2.50;95440.00;;;;4960113;28;87266;-60
2021/12/01 02:47:27;;;;;;;3.35;1.48;;;-2.10;84.20;-2.50;95437.00;;;;4959461;28;87277;-60
2021/12/01 02:49:54;;;;;;;2.53;1.48;;;-2.00;85.10;-2.40;95425.00;;;;4966291;28;86738;-60
2021/12/01 02:52:22;;;;;;;2.72;1.42;;;-2.00;84.50;-2.50;95439.00;;;;4979294;28;88649;-60
2021/12/01 02:54:49;;;;;;;3.28;1.52;;;-2.10;84.40;-2.40;95429.00;;;;4979532;28;87774;-60
2021/12/01 02:57:16;;;;;;;2.60;1.60;;;-2.00;85.40;-2.50;95442.00;;;;4978726;28;88137;-60
2021/12/01 02:59:42;;;;;;;4.20;1.85;;;-2.10;84.40;-2.50;95438.00;;;;4979515;28;87463;-60
2021/12/01 03:02:09;;;;;;;3.53;1.58;;;-2.10;85.20;-2.50;95433.00;;;;4977663;28;87717;-61
2021/12/01 03:04:36;;;;;;;3.35;1.70;;;-2.10;84.90;-2.60;95433.00;;;;4978001;28;88314;-61
2021/12/01 03:07:05;;;;;;;2.40;1.83;;;-2.20;84.90;-2.60;95429.00;;;;4977938;28;86974;-61
2021/12/01 03:09:31;;;;;;;3.50;1.85;;;-2.20;85.30;-2.60;95431.00;;;;4971633;28;86993;-62
2021/12/01 03:11:58;;;;;;;3.10;1.50;;;-2.20;84.60;-2.60;95442.00;;;;4959781;28;87547;-62
2021/12/01 03:14:24;;;;;;;2.63;1.90;;;-2.20;84.90;-2.60;95446.00;;;;4959787;28;87146;-61
2021/12/01 03:16:52;;;;;;;4.43;1.50;;;-2.20;84.60;-2.60;95440.00;;;;4974187;28;87319;-62
2021/12/01 03:19:18;;;;;;;3.67;2.10;;;-2.20;84.70;-2.60;95444.00;;;;4979193;28;87212;-62
2021/12/01 03:21:45;;;;;;;3.60;1.80;;;-2.20;84.80;-2.60;95444.00;;;;4979708;28;89704;-60
2021/12/01 03:24:12;;;;;;;3.22;1.60;;;-2.20;84.60;-2.70;95448.00;;;;4985433;28;89573;-60
2021/12/01 03:26:39;;;;;;;2.40;1.50;;;-2.20;84.30;-2.60;95433.00;;;;4963128;28;87006;-61
2021/12/01 03:29:07;;;;;;;3.83;1.60;;;-2.20;84.40;-2.60;95440.00;;;;4976243;28;87510;-61
2021/12/01 03:31:34;;;;;;;4.20;1.63;;;-2.20;84.00;-2.60;95434.00;;;;4981185;28;88052;-61
2021/12/01 03:34:00;;;;;;;2.08;1.50;;;-2.20;84.40;-2.50;95442.00;;;;4982316;28;87311;-62
2021/12/01 03:36:26;;;;;;;2.67;1.77;;;-2.10;83.60;-2.60;95442.00;;;;4982640;28;86940;-61
2021/12/01 03:38:52;;;;;;;3.00;1.77;;;-2.20;83.00;-2.70;95444.00;;;;4982469;28;86305;-61
2021/12/01 03:41:18;;;;;;;10.43;2.38;;;-2.20;83.40;-2.70;95434.00;;;;4980839;28;87588;-61
2021/12/01 03:43:46;;;;;;;2.00;1.30;;;-2.30;83.40;-2.70;95439.00;;;;4981986;28;87311;-61
2021/12/01 03:46:12;;;;;;;2.67;1.88;;;-2.30;83.30;-2.60;95437.00;;;;4982063;28;88243;-61
2021/12/01 03:48:38;;;;;;;2.78;1.50;;;-2.20;83.30;-2.60;95439.00;;;;4981913;28;87008;-60
2021/12/01 03:51:05;;;;;;;3.05;1.80;;;-2.20;83.30;-2.50;95440.00;;;;4966962;28;87536;-63
2021/12/01 03:53:31;;;;;;;4.05;2.08;;;-2.10;82.70;-2.50;95439.00;;;;4962370;28;87388;-62
2021/12/01 03:55:59;;;;;;;2.53;1.58;;;-2.10;82.70;-2.60;95441.00;;;;4962209;28;87290;-64
2021/12/01 03:58:25;;;;;;;3.15;1.60;;;-2.20;82.30;-2.60;95451.00;;;;4962367;28;87339;-64
2021/12/01 04:00:51;;;;;;;2.53;1.60;;;-2.20;82.60;-2.70;95449.00;;;;4961206;28;88105;-64
2021/12/01 04:03:17;;;;;;;4.47;1.92;;;-2.20;82.40;-2.70;95434.00;;;;4962703;28;87392;-63
2021/12/01 04:05:43;;;;;;;2.78;1.50;;;-2.20;82.50;-2.70;95458.00;;;;4962786;28;87263;-63
2021/12/01 04:08:11;;;;;;;3.78;2.13;;;-2.30;82.70;-2.70;95453.00;;;;4961114;28;87208;-63
2021/12/01 04:10:38;;;;;;;2.95;1.85;;;-2.30;83.60;-2.70;95448.00;;;;4961676;28;89116;-63
2021/12/01 04:13:04;;;;;;;2.75;1.98;;;-2.30;83.30;-2.70;95463.00;;;;4962483;28;88268;-66
2021/12/01 04:15:30;;;;;;;4.18;2.10;;;-2.30;83.10;-2.70;95464.00;;;;4968837;28;87370;-65
2021/12/01 04:17:57;;;;;;;2.97;1.90;;;-2.20;83.20;-2.60;95473.00;;;;4962559;28;87214;-67
2021/12/01 04:20:23;;;;;;;2.15;1.80;;;-2.30;82.50;-2.60;95462.00;;;;4961379;28;88711;-63
2021/12/01 04:22:50;;;;;;;3.47;1.92;;;-2.20;83.10;-2.60;95464.00;;;;4963106;28;87444;-63
2021/12/01 04:25:16;;;;;;;4.53;2.30;;;-2.20;82.80;-2.50;95454.00;;;;4981976;28;86915;-63
2021/12/01 04:27:42;;;;;;;2.53;1.77;;;-2.10;82.70;-2.50;95464.00;;;;4982065;28;86536;-64
2021/12/01 04:30:12;;;;;;;3.55;1.80;;;-2.10;82.70;-2.50;95468.00;;;;4980963;28;88149;-64
2021/12/01 04:32:39;;;;;;;3.75;2.17;;;-2.20;82.10;-2.60;95470.00;;;;4980583;28;87337;-60
2021/12/01 04:35:07;;;;;;;4.65;2.28;;;-2.20;82.30;-2.60;95476.00;;;;4980235;28;88174;-61
2021/12/01 04:37:35;;;;;;;4.97;2.25;;;-2.20;82.60;-2.70;95481.00;;;;4981176;28;87419;-64
2021/12/01 04:40:01;;;;;;;4.57;2.35;;;-2.30;82.80;-2.70;95471.00;;;;4980915;28;87641;-61
2021/12/01 04:42:28;;;;;;;2.95;2.10;;;-2.30;83.50;-2.70;95482.00;;;;4980676;28;87462;-61
2021/12/01 04:44:55;;;;;;;3.95;2.40;;;-2.30;83.80;-2.70;95486.00;;;;4981034;28;87279;-61
2021/12/01 04:47:28;;;;;;;4.00;2.65;;;-2.30;83.30;-2.70;95481.00;;;;4980868;28;87009;-62
2021/12/01 04:49:55;;;;;;;3.92;2.03;;;-2.30;83.30;-2.70;95479.00;;;;4975526;28;87654;-63
2021/12/01 04:52:21;;;;;;;5.45;2.58;;;-2.40;83.60;-2.70;95480.00;;;;4961540;28;88436;-62
2021/12/01 04:54:47;;;;;;;2.95;2.28;;;-2.30;83.60;-2.80;95478.00;;;;4961341;28;87312;-60
2021/12/01 04:57:13;;;;;;;3.35;1.98;;;-2.40;83.30;-2.90;95481.00;;;;4977619;28;87045;-61
2021/12/01 04:59:39;;;;;;;3.47;2.45;;;-2.40;83.90;-2.80;95484.00;;;;4978592;28;89429;-62
2021/12/01 05:02:06;;;;;;;3.78;2.10;;;-2.40;83.30;-2.80;95484.00;;;;4980607;28;89345;-61
2021/12/01 05:04:33;;;;;;;4.57;2.40;;;-2.40;83.10;-2.80;95507.00;;;;4980991;28;87020;-62
2021/12/01 05:06:59;;;;;;;5.20;2.60;;;-2.30;83.30;-2.70;95499.00;;;;4980508;28;86986;-61
2021/12/01 05:09:25;;;;;;;4.40;2.15;;;-2.30;83.10;-2.70;95501.00;;;;4980633;28;87597;-63
2021/12/01 05:11:51;;;;;;;2.72;2.42;;;-2.30;82.70;-2.80;95509.00;;;;4980990;28;87538;-64
2021/12/01 05:14:20;;;;;;;4.45;2.50;;;-2.30;82.70;-2.80;95503.00;;;;4978207;28;87459;-64
2021/12/01 05:16:46;;;;;;;4.50;2.92;;;-2.40;83.60;-2.80;95513.00;;;;4975912;28;86573;-63
2021/12/01 05:19:12;;;;;;;3.60;2.30;;;-2.40;83.20;-2.80;95519.00;;;;4979688;28;87668;-61
2021/12/01 05:21:40;;;;;;;5.70;3.25;;;-2.40;83.10;-2.80;95520.00;;;;4979819;28;87381;-61
2021/12/01 05:24:07;;;;;;;4.45;2.80;;;-2.40;83.30;-2.80;95519.00;;;;4967618;28;88146;-61
2021/12/01 05:26:34;;;;;;;6.15;2.83;;;-2.40;83.30;-2.90;95526.00;;;;4966955;28;87465;-61
2021/12/01 05:29:00;;;;;;;4.32;3.00;;;-2.40;83.30;-2.90;95527.00;;;;4979795;28;88913;-61
2021/12/01 05:31:26;;;;;;;4.05;2.55;;;-2.50;83.60;-2.90;95542.00;;;;4979111;28;87687;-61
2021/12/01 05:33:53;;;;;;;3.88;2.20;;;-2.40;83.80;-2.80;95524.00;;;;4980520;28;87304;-60
2021/12/01 05:36:19;;;;;;;4.13;2.58;;;-2.40;83.40;-2.70;95537.00;;;;4980196;28;87481;-61
2021/12/01 05:38:46;;;;;;;6.30;2.92;;;-2.30;83.00;-2.80;95536.00;;;;4979490;28;87731;-62
2021/12/01 05:41:12;;;;;;;4.22;2.80;;;-2.40;83.30;-2.80;95544.00;;;;4980336;28;88651;-62
2021/12/01 05:43:38;;;;;;;5.13;2.95;;;-2.40;83.20;-2.80;95543.00;;;;4980029;28;87376;-62
2021/12/01 05:46:05;;;;;;;4.25;2.40;;;-2.40;82.60;-2.90;95549.00;;;;4980323;28;87202;-61
2021/12/01 05:48:31;;;;;;;3.83;2.65;;;-2.40;82.70;-2.90;95543.00;;;;4978909;28;88677;-62
2021/12/01 05:50:57;;;;;;;2.55;2.00;;;-2.50;83.20;-2.90;95540.00;;;;4966112;28;88600;-62
2021/12/01 05:53:24;;;;;;;3.85;2.58;;;-2.40;83.50;-2.80;95540.00;;;;4960243;28;87471;-61
2021/12/01 05:55:51;;;;;;;3.00;2.05;;;-2.40;82.40;-2.90;95552.00;;;;4960152;28;87028;-62
2021/12/01 05:58:17;;;;;;;6.00;2.70;;;-2.50;82.70;-2.90;95551.00;;;;4960151;28;87464;-62
2021/12/01 06:00:43;;;;;;;6.40;2.65;;;-2.40;83.20;-2.80;95560.00;;;;4960151;28;87363;-62
2021/12/01 06:03:09;;;;;;;3.15;1.95;;;-2.40;82.50;-2.80;95563.00;;;;4960609;28;87047;-61
2021/12/01 06:05:36;;;;;;;4.45;2.53;;;-2.40;82.30;-2.80;95554.00;;;;4960784;28;86682;-61
2021/12/01 06:08:04;;;;;;;4.93;2.50;;;-2.40;82.30;-2.80;95561.00;;;;4959257;28;89741;-61
2021/12/01 06:10:30;;;;;;;6.00;3.00;;;-2.30;82.40;-2.80;95571.00;;;;4959912;28;89236;-60
2021/12/01 06:12:56;;;;;;;3.95;2.80;;;-2.40;82.10;-2.90;95565.00;;;;4960064;28;87955;-61
2021/12/01 06:15:22;;;;;;;3.80;2.67;;;-2.50;82.30;-2.90;95570.00;;;;4966824;28;87283;-61
2021/12/01 06:17:48;;;;;;;3.63;2.20;;;-2.50;82.70;-2.90;95558.00;;;;4959750;28;87606;-59
2021/12/01 06:20:15;;;;;;;6.78;3.83;;;-2.50;82.30;-3.00;95564.00;;;;4975047;28;87470;-60
2021/12/01 06:22:43;;;;;;;6.20;3.63;;;-2.50;83.00;-2.90;95580.00;;;;4959832;28;87673;-60
2021/12/01 06:25:10;;;;;;;5.20;3.05;;;-2.40;82.60;-2.90;95577.00;;;;4979988;28;86958;-62
2021/12/01 06:27:37;;;;;;;4.00;2.30;;;-2.40;82.40;-2.80;95579.00;;;;4978384;28;90994;-61
2021/12/01 06:30:07;;;;;;;4.82;2.58;;;-2.40;81.90;-2.80;95576.00;;;;4978558;28;87276;-61
2021/12/01 06:32:33;;;;;;;5.65;2.80;;;-2.40;81.70;-2.90;95574.00;;;;4979244;28;87108;-62
2021/12/01 06:34:59;;;;;;;4.50;2.85;;;-2.40;81.90;-2.90;95580.00;;;;4961738;28;87473;-62
2021/12/01 06:37:25;;;;;;;4.20;2.70;;;-2.50;82.20;-2.80;95574.00;;;;4979448;28;88607;-65
2021/12/01 06:39:51;;;;;;;5.85;3.25;;;-2.40;82.40;-2.80;95580.00;;;;4978480;28;88589;-64
2021/12/01 06:42:18;;;;;;;4.57;2.60;;;-2.40;82.70;-2.80;95596.00;;;;4995519;28;87282;-60
2021/12/01 06:44:44;;;;;;;3.25;2.70;;;-2.30;82.50;-2.70;95606.00;;;;4978039;28;87453;-62
2021/12/01 06:47:11;;;;;;;6.20;2.95;;;-2.30;82.30;-2.70;95591.00;;;;4979434;28;87363;-62
2021/12/01 06:49:37;;;;;;;7.40;3.50;;;-2.30;82.30;-2.60;95594.00;;;;4978904;28;87271;-61
2021/12/01 06:52:03;;;;;;;5.05;3.05;;;-2.20;82.60;-2.70;95594.00;;;;4979677;28;86936;-61
2021/12/01 06:54:29;;;;;;;3.85;2.50;;;-2.30;81.80;-2.70;95601.00;;;;4979162;28;86485;-61
2021/12/01 06:56:55;;;;;;;4.13;2.80;;;-2.30;82.30;-2.80;95605.00;;;;4965166;28;88088;-61
2021/12/01 06:59:22;;;;;;;3.70;2.83;;;-2.40;82.40;-2.80;95605.00;;;;4962504;28;88319;-63
2021/12/01 07:01:48;;;;;;;5.07;2.60;;;-2.40;82.30;-2.80;95615.00;;;;4962616;28;88181;-61
2021/12/01 07:04:15;;;;;;;4.18;2.75;;;-2.40;82.60;-2.80;95627.00;;;;4963010;28;87067;-63
2021/12/01 07:06:41;;;;;;;4.53;3.08;;;-2.40;82.70;-2.80;95621.00;;;;4962895;28;87006;-61
2021/12/01 07:09:10;;;;;;;4.70;2.70;;;-2.40;83.10;-2.80;95639.00;;;;4962241;28;87486;-62
2021/12/01 07:11:36;;;;;;;4.68;3.05;;;-2.40;83.00;-2.80;95631.00;;;;4962603;28;87229;-61
2021/12/01 07:14:03;;;;;;;4.07;3.05;;;-2.30;83.30;-2.80;95636.00;;;;4961588;28;87196;-61
2021/12/01 07:16:30;;;;;;;6.03;3.50;;;-2.40;82.60;-2.80;95631.00;;;;4975368;28;87084;-61
2021/12/01 07:18:56;;;;;;;4.63;3.10;;;-2.40;83.10;-2.90;95643.00;;;;4982583;28;87010;-61
2021/12/01 07:21:22;;;;;;;3.95;2.70;;;-2.40;83.20;-2.90;95631.00;;;;4982269;28;86968;-62
2021/12/01 07:23:48;;;;;;;5.35;2.95;;;-2.40;83.20;-2.80;95637.00;;;;4982341;28;87017;-61
2021/12/01 07:26:14;;;;;;;4.65;2.90;;;-2.40;83.10;-2.90;95642.00;;;;4981619;28;88567;-61
2021/12/01 07:28:41;;;;;;;5.28;3.17;;;-2.40;83.40;-2.90;95639.00;;;;4982365;28;88235;-62
2021/12/01 07:31:07;;;;;;;3.90;2.47;;;-2.50;83.50;-2.90;95652.00;;;;4982257;28;87211;-62
2021/12/01 07:33:34;;;;;;;6.65;3.22;;;-2.40;84.10;-2.90;95649.00;;;;4982250;28;87333;-62
2021/12/01 07:36:00;;;;;;;4.13;2.58;;;-2.50;84.00;-2.90;95658.00;;;;4971924;28;87828;-62
2021/12/01 07:38:26;;;;;;;5.20;3.30;;;-2.40;83.50;-2.80;95666.00;;;;4962734;28;87379;-62
2021/12/01 07:40:53;;;;;;;4.80;3.42;;;-2.40;84.20;-2.70;95671.00;;;;4962160;28;87560;-62
2021/12/01 07:43:19;;;;;;;3.92;2.70;;;-2.30;84.10;-2.70;95666.00;;;;4962857;28;86447;-62
2021/12/01 07:45:45;;;;;;;3.30;2.70;;;-2.30;83.80;-2.70;95666.00;;;;4962109;28;87540;-62
2021/12/01 07:48:11;;;;;;;5.07;3.75;;;-2.30;83.40;-2.70;95668.00;;;;4961741;28;88385;-62
2021/12/01 07:50:38;;;;;;;4.78;3.08;;;-2.30;83.30;-2.60;95666.00;;;;4964063;28;88248;-62
2021/12/01 07:53:04;;;;;;;4.68;3.17;;;-2.20;83.20;-2.60;95664.00;;;;4962608;28;86988;-62
2021/12/01 07:55:30;;;;;;;4.95;3.03;;;-2.20;82.60;-2.60;95686.00;;;;4964874;28;88895;-62
2021/12/01 07:57:56;;;;;;;3.42;2.50;;;-2.20;82.60;-2.60;95681.00;;;;4982008;28;87825;-62
2021/12/01 08:00:22;;;;;;;4.55;2.50;;;-2.20;82.10;-2.50;95691.00;;;;4980680;28;87027;-63
2021/12/01 08:02:48;;;;;;;4.70;3.15;;;-2.10;82.60;-2.40;95677.00;;;;4973131;28;87421;-62
2021/12/01 08:05:14;;;;;;;3.28;2.53;;;-2.00;82.50;-2.50;95683.00;;;;4961618;28;87771;-62
2021/12/01 08:07:41;;;;;;;5.72;2.90;;;-2.00;81.80;-2.40;95687.00;;;;4961510;28;87830;-62
2021/12/01 08:10:08;;;;;;;5.13;2.95;;;-2.00;82.20;-2.50;95674.00;;;;4974627;28;87216;-61
2021/12/01 08:12:34;;;;;;;5.57;3.42;;;-2.00;82.20;-2.40;95682.00;;;;4981738;28;87034;-61
2021/12/01 08:15:07;;;;;;;5.40;3.58;;;-2.10;82.10;-2.50;95693.00;;;;4972549;28;90088;-61
2021/12/01 08:17:33;;;;;;;4.97;2.60;;;-2.10;82.40;-2.50;95687.00;;;;4981236;28;88307;-61
2021/12/01 08:19:59;;;;;;;4.32;3.03;;;-2.10;82.60;-2.40;95695.00;;;;4978636;28;87583;-61
2021/12/01 08:22:26;;;;;;;3.47;2.47;;;-2.00;82.60;-2.50;95705.00;;;;4979391;28;87517;-62
2021/12/01 08:24:54;;;;;;;5.47;3.35;;;-2.10;82.20;-2.50;95695.00;;;;4981370;28;88280;-62
2021/12/01 08:27:21;;;;;;;6.93;4.63;;;-2.10;82.60;-2.50;95694.00;;;;4980959;28;87356;-62
2021/12/01 08:29:48;;;;;;;4.88;3.30;;;-2.10;82.80;-2.50;95710.00;;;;4981169;28;86867;-61
2021/12/01 08:32:14;;;;;;;4.28;3.30;;;-2.10;82.70;-2.50;95711.00;;;;4981545;28;86413;-63
2021/12/01 08:34:40;;;;;;;4.65;3.45;;;-2.10;83.50;-2.50;95701.00;;;;4981376;28;87613;-63
2021/12/01 08:37:08;;;;;;;6.05;3.58;;;-2.10;83.30;-2.50;95702.00;;;;4980800;28;87129;-63
2021/12/01 08:39:35;;;;;;;4.45;3.03;;;-2.10;83.50;-2.60;95700.00;;;;4980570;28;88309;-61
2021/12/01 08:42:01;;;;;;;4.05;2.75;;;-2.20;83.20;-2.60;95695.00;;;;4980638;28;86999;-62
2021/12/01 08:44:29;;;;;;;5.20;2.95;;;-2.20;83.60;-2.60;95700.00;;;;4981156;28;87364;-62
2021/12/01 08:46:56;;;;;;;5.18;3.00;;;-2.20;83.70;-2.60;95702.00;;;;4980750;28;87489;-60
2021/12/01 08:49:22;;;;;;;7.13;3.33;;;-2.20;83.80;-2.60;95706.00;;;;4980083;28;87397;-61
2021/12/01 08:51:48;;;;;;;4.97;3.50;;;-2.20;83.60;-2.60;95708.00;;;;4960301;28;87344;-62
2021/12/01 08:54:14;;;;;;;11.30;3.08;;;-2.20;84.00;-2.50;95719.00;;;;4960725;28;88034;-62
2021/12/01 08:56:41;;;;;;;5.22;3.00;;;-2.20;84.00;-2.60;95711.00;;;;4973927;28;87371;-62
2021/12/01 08:59:08;;;;;;;3.70;2.90;;;-2.20;83.50;-2.60;95710.00;;;;4980416;28;86909;-62
2021/12/01 09:01:34;;;;;;;5.57;3.10;;;-2.20;83.70;-2.60;95727.00;;;;4980503;28;87663;-62
2021/12/01 09:04:01;;;;;;;5.20;3.70;;;-2.20;83.70;-2.60;95723.00;;;;4979526;28;88512;-63
2021/12/01 09:06:28;;;;;;;6.07;3.10;;;-2.20;83.70;-2.60;95707.00;;;;4979943;28;88398;-62
2021/12/01 09:08:55;;;;;;;5.47;3.53;;;-2.20;83.80;-2.60;95718.00;;;;4979578;28;87063;-62
2021/12/01 09:11:21;;;;;;;4.85;3.00;;;-2.20;84.30;-2.60;95708.00;;;;4978832;28;87125;-62
2021/12/01 09:13:47;;;;;;;8.18;3.30;;;-2.10;83.60;-2.60;95723.00;;;;4979401;28;87642;-66
2021/12/01 09:16:13;;;;;;;5.90;3.47;;;-2.20;83.60;-2.60;95720.00;;;;4972458;28;87606;-62
2021/12/01 09:18:40;;;;;;;5.80;3.40;;;-2.10;83.10;-2.60;95719.00;;;;4979190;28;87335;-62
2021/12/01 09:21:07;;;;;;;4.68;3.08;;;-2.20;83.10;-2.50;95717.00;;;;4979769;28;86349;-62
2021/12/01 09:23:33;;;;;;;5.28;2.65;;;-2.10;82.40;-2.60;95725.00;;;;4973280;28;87418;-62
2021/12/01 09:25:59;;;;;;;6.63;2.50;;;-2.10;82.20;-2.50;95722.00;;;;4960254;28;87234;-64
2021/12/01 09:28:27;;;;;;;3.70;2.08;;;-2.10;80.90;-2.50;95724.00;;;;4960117;28;88261;-65
2021/12/01 09:30:56;;;;;;;3.50;2.22;;;-2.10;79.70;-2.60;95718.00;;;;4960905;28;86928;-65
2021/12/01 09:33:22;;;;;;;4.43;2.05;;;-2.20;79.00;-2.60;95711.00;;;;4959407;28;87660;-64
2021/12/01 09:35:48;;;;;;;7.00;2.40;;;-2.10;79.20;-2.60;95733.00;;;;4960403;28;87629;-64
2021/12/01 09:38:17;;;;;;;4.03;2.50;;;-2.10;79.70;-2.60;95724.00;;;;4960706;28;87450;-59
2021/12/01 09:40:49;;;;;;;3.80;2.03;;;-2.10;79.60;-2.70;95732.00;;;;4960479;28;87003;-59
2021/12/01 09:43:20;;;;;;;5.10;2.50;;;-2.20;79.80;-2.70;95729.00;;;;4959736;28;87569;-61
2021/12/01 09:45:47;;;;;;;4.88;2.50;;;-2.30;80.20;-2.80;95738.00;;;;4960573;28;87620;-61
2021/12/01 09:48:13;;;;;;;6.00;2.63;;;-2.40;80.30;-2.80;95749.00;;;;4960086;28;87475;-56
2021/12/01 09:50:40;;;;;;;3.65;2.40;;;-2.30;80.70;-2.80;95742.00;;;;4960151;28;87362;-58
2021/12/01 09:53:06;;;;;;;4.68;2.63;;;-2.30;80.80;-2.80;95735.00;;;;4959936;28;89105;-62
2021/12/01 09:55:33;;;;;;;5.25;2.53;;;-2.30;80.90;-2.90;95757.00;;;;4978287;28;88467;-59
2021/12/01 09:58:11;;;;;;;5.55;3.17;;;-2.40;81.10;-2.80;95741.00;;;;4980216;28;87080;-59
2021/12/01 10:00:48;;;;;;;5.43;2.35;;;-2.40;81.10;-2.90;95752.00;;;;4979037;28;87508;-59
2021/12/01 10:03:14;;;;;;;8.35;3.15;;;-2.40;80.60;-2.90;95754.00;;;;4979128;28;87647;-59
2021/12/01 10:06:03;;;;;;;11.27;2.40;;;-2.40;81.60;-3.00;95756.00;;;;4979459;28;88502;-58
2021/12/01 10:08:36;;;;;;;5.28;2.38;;;-2.50;80.30;-3.00;95763.00;;;;4979246;28;88020;-61
2021/12/01 10:11:19;;;;;;;6.20;2.13;;;-2.50;80.50;-3.00;95756.00;;;;4960428;28;86490;-60
2021/12/01 10:13:54;;;;;;;4.82;2.20;;;-2.50;80.50;-3.00;95754.00;;;;4959899;28;87669;-60
2021/12/01 10:16:24;;;;;;;5.22;2.22;;;-2.50;80.60;-3.10;95746.00;;;;4967225;28;87227;-61
2021/12/01 10:18:56;;;;;;;2.65;1.98;;;-2.50;80.40;-3.10;95752.00;;;;4958368;28;88262;-59
2021/12/01 10:21:31;;;;;;;5.90;2.78;;;-2.60;79.70;-3.10;95756.00;;;;4960036;28;86894;-63
2021/12/01 10:24:07;;;;;;;6.45;2.70;;;-2.60;80.30;-3.10;95762.00;;;;4970579;28;87447;-59
2021/12/01 10:26:48;;;;;;;4.78;2.42;;;-2.50;80.30;-3.10;95757.00;;;;4994638;28;88769;-60
2021/12/01 10:29:18;;;;;;;4.88;2.47;;;-2.60;79.80;-3.10;95766.00;;;;4978855;28;87319;-60
2021/12/01 10:32:07;;;;;;;5.60;2.55;;;-2.50;80.10;-3.10;95765.00;;;;4979847;28;87328;-60
2021/12/01 10:34:47;;;;;;;4.68;2.90;;;-2.50;80.20;-3.10;95767.00;;;;4974770;28;88973;-59
2021/12/01 10:37:25;;;;;;;4.82;3.20;;;-2.50;80.50;-3.10;95767.00;;;;4979797;28;87193;-60
2021/12/01 10:40:10;;;;;;;5.20;2.63;;;-2.60;80.30;-3.20;95760.00;;;;4979128;28;87594;-60
2021/12/01 10:43:16;;;;;;;5.97;3.08;;;-2.60;80.00;-3.10;95778.00;;;;4978931;28;87044;-60
2021/12/01 10:45:46;;;;;;;4.15;2.58;;;-2.60;80.30;-3.20;95766.00;;;;4976631;28;90127;-61
2021/12/01 10:48:34;;;;;;;4.65;2.65;;;-2.60;80.30;-3.20;95769.00;;;;4977541;28;87196;-58
2021/12/01 10:51:00;;;;;;;4.57;2.50;;;-2.60;80.30;-3.20;95781.00;;;;4965164;28;87025;-60
2021/12/01 10:53:27;;;;;;;5.47;2.33;;;-2.70;79.80;-3.20;95787.00;;;;4959198;28;87308;-59
2021/12/01 10:55:59;;;;;;;4.32;2.58;;;-2.70;79.40;-3.20;95789.00;;;;4965025;28;88234;-59
2021/12/01 10:58:41;;;;;;;5.25;2.53;;;-2.70;79.50;-3.20;95789.00;;;;4978915;28;88484;-62
2021/12/01 11:01:24;;;;;;;;;;;-2.70;79.20;-3.20;95789.00;;;;4979969;28;87023;-60
2021/12/01 11:03:51;;;;;;;3.45;2.20;;;-2.70;78.90;-3.30;95781.00;;;;4979955;28;86743;-57